Time;durP1;ratioP1;P1;durP2;ratioP2;P2;SDS_P1;SDS_P2;PMS_P1;PMS_P2;Temp;Humidity;BMP_temperature;BMP_pressure;BME280_temperature;BME280_humidity;BME280_pressure;Samples;Min_cycle;Max_cycle;Signal;HPM_P1;HPM_P2
2021/12/21 00:00:52;;;;;;;16.58;9.18;;;;;;;5.99;57.35;101924.31;4918532;29;20427;-65
2021/12/21 00:03:20;;;;;;;25.02;9.18;;;;;;;6.09;57.10;101925.28;4929907;29;20060;-65
2021/12/21 00:05:48;;;;;;;21.50;9.70;;;;;;;5.85;57.06;101926.59;4935957;29;20054;-66
2021/12/21 00:08:17;;;;;;;24.48;9.52;;;;;;;5.91;57.39;101919.28;4937260;29;20052;-65
2021/12/21 00:11:04;;;;;;;18.98;9.20;;;;;;;5.84;56.95;101913.19;4937267;29;20506;-65
2021/12/21 00:19:05;;;;;;;19.50;9.30;;;;;;;5.89;57.33;101897.69;4937300;29;20058;-66
2021/12/21 00:21:40;;;;;;;23.70;9.35;;;;;;;5.88;57.46;101897.91;4937208;29;20075;-66
2021/12/21 00:24:13;;;;;;;23.45;9.95;;;;;;;5.96;56.89;101902.94;4936977;29;20495;-66
2021/12/21 00:26:41;;;;;;;21.55;9.27;;;;;;;5.97;57.38;101899.13;4937325;29;20047;-65
2021/12/21 00:29:08;;;;;;;20.20;8.77;;;;;;;5.90;57.34;101901.22;4937345;29;20063;-66
2021/12/21 00:31:36;;;;;;;18.20;8.57;;;;;;;5.85;57.10;101896.53;4940983;29;20055;-65
2021/12/21 00:34:06;;;;;;;19.00;8.30;;;;;;;5.79;57.31;101902.97;4938776;29;20055;-65
2021/12/21 00:36:35;;;;;;;21.80;9.65;;;;;;;5.80;57.64;101898.31;4940757;29;20058;-65
2021/12/21 00:39:07;;;;;;;22.98;9.38;;;;;;;5.81;57.61;101891.75;4940544;29;20059;-65
2021/12/21 00:41:35;;;;;;;19.63;9.07;;;;;;;5.98;57.39;101893.41;4939453;29;20051;-65
2021/12/21 00:44:02;;;;;;;22.23;9.32;;;;;;;6.04;56.87;101897.03;4939218;29;20051;-65
2021/12/21 00:46:30;;;;;;;30.10;9.40;;;;;;;5.94;57.08;101900.47;4940613;29;20392;-65
2021/12/21 00:49:02;;;;;;;22.58;8.57;;;;;;;5.96;56.87;101892.00;4940257;29;20044;-65
2021/12/21 00:51:29;;;;;;;20.73;9.07;;;;;;;5.78;57.09;101887.66;4940735;29;20059;-66
2021/12/21 00:53:57;;;;;;;19.10;8.43;;;;;;;5.83;57.07;101884.16;4938819;29;20052;-66
2021/12/21 00:56:24;;;;;;;20.35;8.90;;;;;;;5.93;57.28;101889.78;4940311;29;20060;-66
2021/12/21 00:58:51;;;;;;;22.33;10.02;;;;;;;6.04;56.98;101891.56;4940460;29;20048;-65
2021/12/21 01:01:18;;;;;;;20.10;8.75;;;;;;;5.98;57.01;101884.38;4940453;29;20059;-65
2021/12/21 01:03:47;;;;;;;19.52;8.40;;;;;;;5.95;57.22;101882.97;4925076;29;20067;-65
2021/12/21 01:06:38;;;;;;;20.95;8.48;;;;;;;5.84;57.21;101880.38;4920981;29;20048;-65
2021/12/21 01:11:42;;;;;;;20.20;8.13;;;;;;;5.94;56.34;101878.59;4921302;29;20052;-66
2021/12/21 01:19:40;;;;;;;21.65;7.55;;;;;;;5.85;56.89;101880.13;4920820;29;20055;-66
2021/12/21 01:22:38;;;;;;;20.15;8.07;;;;;;;5.87;56.63;101888.91;4921175;29;20052;-66
2021/12/21 01:25:38;;;;;;;24.05;8.10;;;;;;;5.86;56.71;101880.94;4920728;29;20083;-66
2021/12/21 01:28:02;;;;;;;23.02;7.80;;;;;;;5.73;56.91;101871.19;4920522;29;20063;-66
2021/12/21 01:31:17;;;;;;;23.00;8.38;;;;;;;5.88;57.00;101876.03;4919724;29;20124;-66
2021/12/21 01:35:55;;;;;;;17.42;7.80;;;;;;;5.70;57.13;101871.69;4919192;29;20052;-65
2021/12/21 01:38:31;;;;;;;19.73;7.77;;;;;;;5.79;57.44;101874.81;4919454;29;20052;-65
2021/12/21 01:51:26;;;;;;;17.52;7.20;;;;;;;5.93;56.17;101871.47;4920267;29;20108;-65
2021/12/21 01:53:53;;;;;;;19.10;7.20;;;;;;;5.85;55.97;101880.13;4920291;29;20052;-66
2021/12/21 01:56:21;;;;;;;17.35;7.72;;;;;;;5.79;56.63;101875.63;4920204;29;20060;-65
2021/12/21 01:58:49;;;;;;;15.35;7.13;;;;;;;5.46;57.30;101871.06;4918999;29;20071;-65
2021/12/21 02:01:18;;;;;;;21.30;7.88;;;;;;;5.76;56.75;101873.41;4919233;29;20056;-65
2021/12/21 02:03:49;;;;;;;17.63;7.88;;;;;;;5.80;56.86;101874.56;4934860;29;20077;-65
2021/12/21 02:06:19;;;;;;;18.58;7.72;;;;;;;5.81;56.34;101878.09;4939202;29;20079;-64
2021/12/21 02:08:46;;;;;;;;;;;;;;;5.71;56.86;101876.06;4939896;29;20059;-65
2021/12/21 02:11:14;;;;;;;19.10;7.55;;;;;;;5.69;56.89;101867.28;4938700;29;19922;-66
2021/12/21 02:13:47;;;;;;;17.98;6.72;;;;;;;5.68;56.68;101873.84;4953301;29;20060;-65
2021/12/21 02:16:23;;;;;;;19.33;7.28;;;;;;;5.79;56.93;101866.63;4938571;29;20060;-66
2021/12/21 02:21:35;;;;;;;17.48;6.63;;;;;;;5.71;56.65;101867.88;4938919;29;20051;-65
2021/12/21 02:24:09;;;;;;;17.23;7.40;;;;;;;5.61;57.26;101860.34;4938830;29;20125;-66
2021/12/21 02:29:13;;;;;;;21.17;8.60;;;;;;;5.43;58.00;101852.47;4938678;29;20054;-65
2021/12/21 02:31:45;;;;;;;16.15;7.53;;;;;;;5.52;57.50;101845.50;4938736;29;20052;-66
2021/12/21 02:34:14;;;;;;;21.98;8.50;;;;;;;5.51;57.84;101841.09;4938262;29;20052;-65
2021/12/21 02:36:43;;;;;;;17.75;6.78;;;;;;;5.73;57.12;101843.84;4921428;29;20055;-67
2021/12/21 02:39:12;;;;;;;15.10;7.70;;;;;;;5.73;57.17;101841.94;4936894;29;20066;-66
2021/12/21 02:41:40;;;;;;;18.55;7.35;;;;;;;5.72;56.98;101839.44;4938446;29;20051;-65
2021/12/21 02:44:07;;;;;;;21.25;7.90;;;;;;;5.55;57.25;101830.47;4938292;29;20052;-65
2021/12/21 02:46:38;;;;;;;19.00;7.15;;;;;;;5.56;57.37;101835.69;4952978;28;20483;-65
2021/12/21 02:49:07;;;;;;;18.10;8.68;;;;;;;5.68;57.58;101828.19;4938224;29;20063;-66
2021/12/21 02:51:37;;;;;;;20.45;8.13;;;;;;;5.88;57.41;101822.19;4937874;29;20044;-64
2021/12/21 02:54:05;;;;;;;18.40;8.43;;;;;;;6.02;57.27;101825.34;4937668;29;20058;-64
2021/12/21 02:56:32;;;;;;;17.73;7.63;;;;;;;5.93;57.18;101822.25;4938005;29;20059;-65
2021/12/21 02:58:59;;;;;;;17.70;8.23;;;;;;;5.61;58.22;101815.81;4938174;29;20059;-65
2021/12/21 03:01:29;;;;;;;27.23;8.95;;;;;;;5.61;58.02;101821.28;4952356;29;20732;-66
2021/12/21 03:03:58;;;;;;;18.25;8.15;;;;;;;5.61;58.47;101807.63;4921298;29;20511;-66
2021/12/21 03:12:09;;;;;;;20.20;8.85;;;;;;;5.71;58.21;101805.84;4919202;29;20511;-66
2021/12/21 03:14:36;;;;;;;20.17;8.90;;;;;;;5.67;57.82;101815.63;4919057;29;20056;-65
2021/12/21 03:17:05;;;;;;;18.40;8.57;;;;;;;5.35;58.33;101820.09;4919250;29;20067;-65
2021/12/21 03:19:32;;;;;;;19.17;8.73;;;;;;;5.22;58.68;101816.91;4917163;29;20083;-65
2021/12/21 03:22:00;;;;;;;20.13;8.18;;;;;;;5.18;59.37;101826.66;4918932;29;20075;-65
2021/12/21 03:24:27;;;;;;;20.52;8.57;;;;;;;5.14;59.65;101823.63;4917374;29;20058;-65
2021/12/21 03:26:55;;;;;;;22.80;8.68;;;;;;;5.24;59.21;101817.47;4918792;29;20496;-65
2021/12/21 03:29:23;;;;;;;20.45;8.10;;;;;;;5.42;58.69;101820.75;4917369;29;20516;-65
2021/12/21 03:31:51;;;;;;;19.13;8.43;;;;;;;5.37;58.79;101815.22;4918721;29;20456;-65
2021/12/21 03:34:19;;;;;;;22.27;9.32;;;;;;;5.19;59.50;101814.69;4918516;29;20075;-66
2021/12/21 03:36:46;;;;;;;25.30;9.10;;;;;;;5.30;59.48;101817.28;4917401;29;20554;-65
2021/12/21 03:39:18;;;;;;;17.65;7.80;;;;;;;5.34;59.60;101814.88;4918746;29;20047;-65
2021/12/21 03:41:54;;;;;;;17.40;7.15;;;;;;;5.26;59.81;101809.88;4918832;29;20055;-64
2021/12/21 03:44:22;;;;;;;20.45;8.65;;;;;;;5.02;60.51;101822.06;4919389;29;20064;-65
2021/12/21 03:46:53;;;;;;;18.73;8.18;;;;;;;4.99;60.56;101820.66;4918642;29;20052;-64
2021/12/21 03:52:05;;;;;;;18.43;7.33;;;;;;;5.26;60.23;101820.78;4919436;29;20048;-65
2021/12/21 03:54:33;;;;;;;15.07;6.55;;;;;;;5.08;60.70;101824.63;4918205;29;20319;-65
2021/12/21 03:57:01;;;;;;;17.10;7.07;;;;;;;5.08;61.01;101812.88;4917220;29;20052;-65
2021/12/21 03:59:29;;;;;;;15.52;6.82;;;;;;;5.08;60.85;101818.31;4919152;29;20060;-65
2021/12/21 04:01:57;;;;;;;19.45;7.43;;;;;;;5.02;60.96;101824.81;4917466;29;20052;-65
2021/12/21 04:04:24;;;;;;;16.70;6.95;;;;;;;4.96;61.22;101817.59;4939312;29;20043;-65
2021/12/21 04:06:53;;;;;;;18.77;7.20;;;;;;;5.11;60.63;101812.38;4941702;29;20055;-65
2021/12/21 04:09:20;;;;;;;25.42;7.38;;;;;;;5.00;60.85;101814.13;4939810;29;20056;-66
2021/12/21 04:11:48;;;;;;;17.42;6.95;;;;;;;5.19;60.60;101803.75;4941354;29;20063;-65
2021/12/21 04:14:19;;;;;;;19.38;7.00;;;;;;;5.17;60.38;101811.38;4941142;29;20055;-65
2021/12/21 04:16:47;;;;;;;24.92;7.90;;;;;;;5.12;61.03;101809.41;4940069;29;20061;-65
2021/12/21 04:19:17;;;;;;;22.88;7.57;;;;;;;5.05;61.21;101806.03;4940811;29;20058;-65
2021/12/21 04:21:44;;;;;;;21.70;7.75;;;;;;;5.20;60.83;101806.22;4941201;29;20055;-65
2021/12/21 04:24:12;;;;;;;19.50;7.82;;;;;;;5.08;60.97;101802.78;4940817;29;20070;-65
2021/12/21 04:26:39;;;;;;;21.83;8.10;;;;;;;5.06;60.91;101799.47;4940958;29;20051;-65
2021/12/21 04:29:07;;;;;;;18.15;7.93;;;;;;;5.12;61.07;101809.41;4939606;29;20527;-65
2021/12/21 04:31:34;;;;;;;23.23;8.35;;;;;;;5.09;61.59;101800.88;4940895;29;20073;-66
2021/12/21 04:34:02;;;;;;;24.60;8.32;;;;;;;5.19;60.97;101806.50;4940609;29;20070;-66
2021/12/21 04:36:30;;;;;;;23.65;7.97;;;;;;;4.98;61.54;101801.81;4940680;29;20183;-65
2021/12/21 04:39:00;;;;;;;21.15;8.25;;;;;;;4.96;61.98;101803.94;4940750;29;20403;-65
2021/12/21 04:41:28;;;;;;;23.08;8.23;;;;;;;4.94;62.04;101806.09;4940705;29;20183;-65
2021/12/21 04:43:57;;;;;;;20.50;8.50;;;;;;;4.92;62.15;101811.81;4940661;29;20123;-65
2021/12/21 04:46:26;;;;;;;24.52;8.18;;;;;;;4.84;62.67;101806.78;4940372;29;20052;-65
2021/12/21 04:48:54;;;;;;;17.67;8.35;;;;;;;4.72;63.08;101805.22;4938514;29;20059;-65
2021/12/21 04:51:22;;;;;;;21.80;8.10;;;;;;;4.70;63.47;101799.16;4940435;29;20047;-66
2021/12/21 04:53:49;;;;;;;22.27;8.52;;;;;;;4.70;63.56;101810.91;4940390;29;20052;-66
2021/12/21 04:56:17;;;;;;;20.00;8.43;;;;;;;4.73;63.29;101804.97;4940225;29;20082;-64
2021/12/21 04:58:44;;;;;;;25.40;8.73;;;;;;;4.75;63.48;101802.81;4940489;29;20048;-66
2021/12/21 05:01:12;;;;;;;23.30;7.93;;;;;;;4.64;63.24;101795.53;4940317;29;20055;-64
2021/12/21 05:03:39;;;;;;;23.80;7.97;;;;;;;4.59;63.74;101798.16;4925961;29;20059;-65
2021/12/21 05:06:06;;;;;;;22.02;7.97;;;;;;;4.59;63.83;101800.91;4920008;29;20056;-65
2021/12/21 05:08:37;;;;;;;21.65;8.57;;;;;;;4.78;63.62;101804.22;4921165;29;20071;-65
2021/12/21 05:11:06;;;;;;;22.50;9.07;;;;;;;4.54;64.04;101807.13;4921047;29;20052;-65
2021/12/21 05:13:37;;;;;;;22.35;8.50;;;;;;;4.54;64.46;101809.84;4921039;29;20067;-65
2021/12/21 05:16:05;;;;;;;23.25;8.85;;;;;;;4.59;64.09;101812.66;4918860;29;20075;-65
2021/12/21 05:18:32;;;;;;;24.13;9.10;;;;;;;4.58;64.27;101816.44;4920987;29;20067;-65
2021/12/21 05:21:00;;;;;;;22.30;9.15;;;;;;;4.64;64.15;101806.44;4903583;29;20051;-66
2021/12/21 05:23:27;;;;;;;22.17;9.20;;;;;;;4.63;64.44;101812.97;4920713;29;20056;-65
2021/12/21 05:25:54;;;;;;;19.85;7.68;;;;;;;4.63;64.42;101804.81;4920679;29;20408;-65
2021/12/21 05:28:22;;;;;;;22.70;9.60;;;;;;;4.48;64.45;101808.09;4920815;29;20063;-66
2021/12/21 05:30:49;;;;;;;21.00;8.20;;;;;;;4.49;65.00;101803.47;4920895;29;20044;-66
2021/12/21 05:33:16;;;;;;;22.52;9.25;;;;;;;4.47;64.81;101811.06;4921430;29;20060;-65
2021/12/21 05:35:44;;;;;;;24.88;8.25;;;;;;;4.41;65.16;101810.16;4920515;29;20044;-66
2021/12/21 05:38:16;;;;;;;20.65;8.73;;;;;;;4.33;65.23;101813.28;4919427;29;20052;-66
2021/12/21 05:40:46;;;;;;;20.27;8.30;;;;;;;4.55;64.62;101816.94;4920521;29;20488;-66
2021/12/21 05:43:14;;;;;;;23.23;9.10;;;;;;;4.42;64.88;101809.09;4920680;29;20048;-65
2021/12/21 05:45:41;;;;;;;20.73;8.80;;;;;;;4.46;65.08;101804.78;4920456;29;20051;-65
2021/12/21 05:48:09;;;;;;;25.10;8.60;;;;;;;4.52;64.84;101809.25;4919401;29;20064;-67
2021/12/21 05:50:36;;;;;;;22.42;8.05;;;;;;;4.46;64.25;101802.03;4920195;29;20052;-65
2021/12/21 05:53:04;;;;;;;16.17;7.65;;;;;;;4.26;65.46;101806.31;4920520;29;20044;-65
2021/12/21 05:55:31;;;;;;;16.23;7.57;;;;;;;4.38;65.08;101805.19;4919952;29;20067;-65
2021/12/21 05:57:59;;;;;;;25.42;8.50;;;;;;;4.39;64.58;101806.03;4920391;29;20059;-65
2021/12/21 06:00:29;;;;;;;20.67;7.85;;;;;;;4.22;65.16;101803.25;4920411;29;20063;-65
2021/12/21 06:02:56;;;;;;;21.23;7.65;;;;;;;4.21;64.90;101809.78;4927597;29;20051;-65
2021/12/21 06:05:24;;;;;;;22.50;7.30;;;;;;;4.22;65.27;101816.88;4937528;29;20048;-66
2021/12/21 06:07:53;;;;;;;20.88;7.47;;;;;;;4.28;64.82;101818.66;4937285;29;20056;-65
2021/12/21 06:10:30;;;;;;;22.63;8.30;;;;;;;4.21;65.17;101817.13;4939088;29;20066;-65
2021/12/21 06:15:39;;;;;;;21.85;7.50;;;;;;;4.11;65.20;101820.53;4939130;29;20078;-66
2021/12/21 06:26:15;;;;;;;23.02;7.72;;;;;;;4.06;65.54;101825.84;4938699;29;20051;-66
2021/12/21 06:28:44;;;;;;;22.20;7.28;;;;;;;4.11;65.27;101820.53;4937308;29;20062;-66
2021/12/21 06:31:14;;;;;;;20.63;7.30;;;;;;;3.91;65.55;101820.13;4937471;29;20496;-66
2021/12/21 06:33:41;;;;;;;28.50;11.52;;;;;;;3.95;65.51;101809.56;4938501;29;20051;-65
2021/12/21 06:36:10;;;;;;;20.75;8.52;;;;;;;3.88;65.58;101815.16;4921366;29;20060;-65
2021/12/21 06:38:37;;;;;;;25.35;7.45;;;;;;;3.96;65.60;101814.75;4939102;29;20144;-65
2021/12/21 06:41:05;;;;;;;20.70;7.28;;;;;;;3.73;65.83;101812.09;4939004;29;20058;-65
2021/12/21 06:43:33;;;;;;;19.38;7.57;;;;;;;3.69;65.88;101810.13;4938542;29;20056;-65
2021/12/21 06:51:47;;;;;;;25.17;8.07;;;;;;;3.80;66.24;101809.25;4950919;29;20044;-65
2021/12/21 06:54:15;;;;;;;20.95;6.47;;;;;;;3.86;65.70;101811.84;4938394;29;20056;-65
2021/12/21 06:56:42;;;;;;;17.90;6.65;;;;;;;3.84;66.22;101815.88;4938248;29;20052;-65
2021/12/21 06:59:10;;;;;;;21.35;7.13;;;;;;;3.79;65.90;101811.16;4938161;29;20051;-65
2021/12/21 07:01:38;;;;;;;24.17;7.10;;;;;;;3.73;65.67;101812.09;4938357;29;20058;-65
2021/12/21 07:04:07;;;;;;;24.52;7.50;;;;;;;3.78;65.88;101814.97;4920549;29;20055;-65
2021/12/21 07:06:36;;;;;;;23.98;7.55;;;;;;;3.69;66.61;101810.97;4919251;29;20067;-65
2021/12/21 07:09:11;;;;;;;21.83;6.68;;;;;;;3.70;66.76;101809.88;4919276;29;20060;-66
2021/12/21 07:19:38;;;;;;;24.05;7.55;;;;;;;3.67;66.35;101815.81;4918863;29;20063;-65
2021/12/21 07:22:06;;;;;;;23.30;7.30;;;;;;;3.78;66.39;101814.97;4917766;29;20040;-65
2021/12/21 07:24:34;;;;;;;19.00;7.05;;;;;;;3.75;65.67;101809.97;4918949;29;20060;-65
2021/12/21 07:27:01;;;;;;;21.52;8.00;;;;;;;3.89;65.77;101822.25;4918839;29;20056;-65
2021/12/21 07:29:28;;;;;;;25.67;7.57;;;;;;;3.72;66.49;101818.63;4919123;29;20055;-66
2021/12/21 07:31:56;;;;;;;25.80;7.95;;;;;;;3.88;64.92;101823.34;4919153;29;20055;-66
2021/12/21 07:34:23;;;;;;;25.48;8.00;;;;;;;3.67;65.90;101832.16;4918979;29;20063;-66
2021/12/21 07:36:50;;;;;;;28.20;7.80;;;;;;;3.47;66.43;101829.81;4919063;29;20055;-67
2021/12/21 07:39:18;;;;;;;23.45;7.82;;;;;;;3.34;66.80;101829.25;4917638;29;20063;-65
2021/12/21 07:42:05;;;;;;;22.45;8.50;;;;;;;3.35;66.70;101820.84;4917662;29;20059;-65
2021/12/21 07:44:33;;;;;;;19.50;7.65;;;;;;;3.30;66.96;101822.63;4919019;29;20051;-67
2021/12/21 07:47:00;;;;;;;24.15;7.50;;;;;;;3.30;66.73;101822.63;4918749;29;20060;-64
2021/12/21 07:49:28;;;;;;;25.70;8.20;;;;;;;3.21;67.21;101824.06;4918488;29;20059;-65
2021/12/21 07:51:56;;;;;;;24.10;9.02;;;;;;;3.16;66.88;101823.94;4918909;29;20048;-65
2021/12/21 07:54:23;;;;;;;25.92;7.63;;;;;;;3.24;67.09;101816.22;4918740;29;20107;-65
2021/12/21 07:56:50;;;;;;;19.52;6.97;;;;;;;3.24;66.93;101831.75;4918065;29;20141;-66
2021/12/21 07:59:18;;;;;;;25.83;7.47;;;;;;;3.39;66.38;101830.22;4918675;29;20052;-65
2021/12/21 08:01:45;;;;;;;27.35;8.35;;;;;;;3.68;65.51;101835.72;4917300;29;20063;-65
2021/12/21 08:04:13;;;;;;;26.13;8.00;;;;;;;3.41;66.03;101835.41;4935652;29;20052;-65
2021/12/21 08:06:43;;;;;;;20.30;7.72;;;;;;;3.33;66.65;101831.16;4937391;29;20055;-66
2021/12/21 08:09:11;;;;;;;23.20;7.45;;;;;;;3.36;66.32;101830.66;4937415;29;20055;-66
2021/12/21 08:14:06;;;;;;;25.38;8.60;;;;;;;3.33;66.42;101836.59;4937859;29;20054;-65
2021/12/21 08:16:36;;;;;;;;;;;;;;;3.35;66.20;101831.75;4937951;29;20052;-65
2021/12/21 08:19:03;;;;;;;25.60;9.48;;;;;;;3.57;66.06;101834.69;4920537;29;20089;-65
2021/12/21 08:21:31;;;;;;;23.70;8.55;;;;;;;3.47;66.20;101834.44;4937501;29;20051;-65
2021/12/21 08:23:58;;;;;;;19.48;7.90;;;;;;;3.51;65.93;101840.22;4937155;29;20047;-65
2021/12/21 08:26:26;;;;;;;25.25;7.72;;;;;;;3.40;66.06;101844.63;4937178;29;20506;-66
2021/12/21 08:28:53;;;;;;;20.70;7.50;;;;;;;3.37;66.38;101836.94;4937435;29;20052;-66
2021/12/21 08:31:20;;;;;;;17.40;7.30;;;;;;;3.20;66.56;101839.56;4935711;29;20060;-65
2021/12/21 08:33:48;;;;;;;24.15;8.30;;;;;;;3.20;66.72;101839.56;4936996;29;20052;-65
2021/12/21 08:36:16;;;;;;;22.27;8.27;;;;;;;3.41;66.18;101838.97;4936786;29;20399;-66
2021/12/21 08:38:48;;;;;;;27.85;8.38;;;;;;;3.38;66.06;101844.06;4935722;29;20062;-65
2021/12/21 08:41:15;;;;;;;19.17;7.90;;;;;;;3.27;66.35;101839.44;4937158;29;20059;-66
2021/12/21 08:43:43;;;;;;;23.23;7.97;;;;;;;3.26;66.77;101838.59;4937212;29;20051;-65
2021/12/21 08:46:10;;;;;;;19.42;7.90;;;;;;;3.33;66.20;101843.91;4937541;29;20067;-65
2021/12/21 08:48:37;;;;;;;26.25;8.57;;;;;;;3.23;66.76;101835.53;4935283;29;20377;-65
2021/12/21 08:51:05;;;;;;;21.10;8.50;;;;;;;3.26;66.85;101835.88;4938464;29;20051;-66
2021/12/21 08:53:33;;;;;;;26.65;8.55;;;;;;;3.32;66.15;101840.41;4955013;29;20052;-64
2021/12/21 08:56:00;;;;;;;23.70;7.95;;;;;;;3.19;66.80;101839.81;4940252;29;20064;-64
2021/12/21 08:58:28;;;;;;;19.88;7.72;;;;;;;3.16;66.81;101840.28;4940532;29;20055;-66
2021/12/21 09:00:56;;;;;;;25.50;8.35;;;;;;;3.07;66.99;101842.53;4940579;29;20058;-65
2021/12/21 09:03:23;;;;;;;21.58;7.72;;;;;;;3.01;67.39;101845.38;4928230;29;20040;-65
2021/12/21 09:05:52;;;;;;;28.08;7.15;;;;;;;3.12;67.09;101837.19;4921566;29;20048;-66
2021/12/21 09:08:20;;;;;;;25.15;9.98;;;;;;;3.04;67.05;101844.88;4919899;29;20059;-66
2021/12/21 09:10:48;;;;;;;25.33;9.02;;;;;;;3.01;67.50;101848.09;4904459;29;20067;-65
2021/12/21 09:13:15;;;;;;;31.85;8.85;;;;;;;3.07;67.53;101845.25;4920090;29;20055;-65
2021/12/21 09:15:44;;;;;;;26.20;8.57;;;;;;;3.29;67.10;101848.22;4921538;29;20055;-65
2021/12/21 09:18:11;;;;;;;23.05;8.77;;;;;;;3.30;66.80;101847.97;4921127;29;20083;-65
2021/12/21 09:20:39;;;;;;;27.00;8.88;;;;;;;3.36;66.51;101852.44;4921347;29;20055;-65
2021/12/21 09:23:07;;;;;;;28.25;9.15;;;;;;;3.33;66.59;101854.81;4921479;29;20048;-65
2021/12/21 09:25:34;;;;;;;29.00;10.60;;;;;;;3.36;66.61;101851.63;4921459;29;20059;-65
2021/12/21 09:28:01;;;;;;;22.10;8.32;;;;;;;3.27;66.73;101853.06;4921141;29;20056;-65
2021/12/21 09:30:29;;;;;;;21.65;8.70;;;;;;;3.31;66.21;101857.78;4921187;29;20052;-65
2021/12/21 09:32:57;;;;;;;25.45;8.75;;;;;;;3.25;66.44;101852.47;4919784;29;20048;-66
2021/12/21 09:35:25;;;;;;;24.88;9.88;;;;;;;3.20;67.10;101858.63;4920835;29;20468;-66
2021/12/21 09:37:53;;;;;;;22.75;9.00;;;;;;;3.18;67.22;101849.88;4921114;29;20056;-66
2021/12/21 09:40:27;;;;;;;31.88;13.05;;;;;;;3.28;67.01;101858.25;4919569;29;20056;-67
2021/12/21 09:42:56;;;;;;;27.80;10.05;;;;;;;3.48;66.35;101855.16;4921630;29;20052;-66
2021/12/21 09:45:23;;;;;;;17.38;8.43;;;;;;;3.59;65.77;101858.94;4920836;29;20068;-65
2021/12/21 09:47:51;;;;;;;25.63;9.57;;;;;;;3.39;66.17;101860.16;4920653;29;20047;-67
2021/12/21 09:50:21;;;;;;;24.85;9.65;;;;;;;3.25;66.75;101866.06;4920625;29;20063;-67
2021/12/21 09:52:49;;;;;;;34.85;9.95;;;;;;;3.27;66.89;101869.41;4919265;29;20067;-65
2021/12/21 09:55:18;;;;;;;30.40;9.70;;;;;;;3.29;66.84;101865.38;4919028;29;20535;-67
2021/12/21 09:57:48;;;;;;;27.73;9.32;;;;;;;3.39;66.69;101859.31;4921033;29;20492;-65
2021/12/21 10:00:19;;;;;;;31.63;9.68;;;;;;;3.40;66.59;101866.41;4920379;29;20055;-65
2021/12/21 10:02:47;;;;;;;29.65;9.85;;;;;;;3.56;66.03;101865.69;4927231;29;20051;-65
2021/12/21 10:05:18;;;;;;;30.75;10.13;;;;;;;3.46;66.04;101862.75;4939171;29;20542;-65
2021/12/21 10:07:56;;;;;;;22.50;9.88;;;;;;;3.87;65.77;101870.72;4939114;29;20047;-65
2021/12/21 10:10:24;;;;;;;29.83;10.45;;;;;;;3.67;65.67;101870.31;4939086;29;20055;-64
2021/12/21 10:12:51;;;;;;;30.98;10.77;;;;;;;3.63;65.88;101871.84;4922138;29;20062;-66
2021/12/21 10:15:21;;;;;;;29.25;10.43;;;;;;;3.58;66.17;101865.44;4939265;29;20060;-65
2021/12/21 10:17:59;;;;;;;20.77;9.93;;;;;;;3.45;66.63;101864.63;4938826;29;20066;-65
2021/12/21 10:20:31;;;;;;;20.33;10.07;;;;;;;3.83;66.04;101866.00;4937250;29;20059;-65
2021/12/21 10:22:58;;;;;;;35.83;10.15;;;;;;;3.78;65.34;101868.63;4939014;29;20058;-66
2021/12/21 10:25:27;;;;;;;27.00;10.13;;;;;;;3.52;66.66;101869.16;4938865;29;20048;-67
2021/12/21 10:27:54;;;;;;;23.90;10.13;;;;;;;3.71;66.39;101859.75;4938839;29;20048;-65
2021/12/21 10:30:21;;;;;;;30.13;11.15;;;;;;;3.82;65.66;101859.72;4938917;29;20054;-65
2021/12/21 10:32:53;;;;;;;30.40;10.60;;;;;;;3.80;65.46;101864.56;4938907;29;20043;-65
2021/12/21 10:35:30;;;;;;;26.25;10.43;;;;;;;3.78;65.66;101857.72;4939075;29;20056;-65
2021/12/21 10:38:02;;;;;;;28.33;11.93;;;;;;;3.67;66.26;101851.22;4936976;29;20059;-65
2021/12/21 10:40:29;;;;;;;25.60;10.93;;;;;;;3.75;66.12;101847.31;4938526;29;20048;-65
2021/12/21 10:42:59;;;;;;;27.20;11.07;;;;;;;3.83;65.82;101855.94;4938717;29;20082;-65
2021/12/21 10:45:32;;;;;;;27.70;10.95;;;;;;;3.65;66.18;101853.34;4953001;29;20056;-64
2021/12/21 10:48:03;;;;;;;26.55;11.75;;;;;;;3.73;66.58;101847.53;4938563;29;20056;-66
2021/12/21 10:50:33;;;;;;;30.30;11.77;;;;;;;3.71;66.25;101851.56;4938423;29;20058;-65
2021/12/21 10:53:03;;;;;;;30.00;14.63;;;;;;;3.85;66.03;101855.69;4938560;29;20059;-65
2021/12/21 10:55:33;;;;;;;33.63;12.82;;;;;;;3.88;65.04;101847.84;4936771;29;20064;-65
2021/12/21 10:58:18;;;;;;;32.05;11.95;;;;;;;3.85;65.63;101856.53;4938132;29;20062;-65
2021/12/21 11:00:52;;;;;;;34.10;12.50;;;;;;;3.86;65.67;101852.72;4938476;29;20411;-65
2021/12/21 11:03:29;;;;;;;34.80;11.55;;;;;;;4.03;65.20;101852.75;4926242;29;20048;-65
2021/12/21 11:06:17;;;;;;;34.00;11.30;;;;;;;3.97;65.05;101840.97;4919154;29;20071;-65
2021/12/21 11:08:48;;;;;;;30.70;11.80;;;;;;;3.90;65.54;101848.44;4918753;29;20062;-65
2021/12/21 11:11:34;;;;;;;30.67;11.25;;;;;;;3.99;65.24;101846.16;4919080;29;20067;-65
2021/12/21 11:14:09;;;;;;;27.35;11.48;;;;;;;3.94;65.55;101846.06;4917194;29;20067;-67
2021/12/21 11:16:42;;;;;;;28.25;12.38;;;;;;;3.95;65.21;101848.53;4919304;29;20052;-65
2021/12/21 11:19:11;;;;;;;25.35;10.60;;;;;;;3.90;65.13;101853.91;4918803;29;20044;-66
2021/12/21 11:21:39;;;;;;;33.47;11.85;;;;;;;3.79;65.77;101846.56;4919183;29;20048;-68
2021/12/21 11:24:09;;;;;;;40.28;13.38;;;;;;;3.60;66.40;101846.97;4917777;29;20162;-66
2021/12/21 11:26:37;;;;;;;;;;;;;;;3.63;66.45;101832.91;4919436;29;20059;-67
2021/12/21 11:29:08;;;;;;;27.90;11.88;;;;;;;3.75;66.28;101834.50;4918915;29;19923;-65
2021/12/21 11:31:43;;;;;;;31.75;12.90;;;;;;;3.89;66.19;101835.06;4917818;29;20054;-66
2021/12/21 11:34:15;;;;;;;30.55;12.30;;;;;;;4.12;65.60;101833.06;4918846;29;20056;-65
2021/12/21 11:39:41;;;;;;;37.17;13.48;;;;;;;3.93;65.89;101831.59;4918563;29;20055;-66
2021/12/21 11:42:16;;;;;;;31.27;13.05;;;;;;;4.34;64.85;101823.09;4917662;29;20174;-66
2021/12/21 11:45:03;;;;;;;32.33;11.98;;;;;;;4.18;64.95;101813.03;4917511;29;20055;-67
2021/12/21 11:47:35;;;;;;;33.35;12.27;;;;;;;4.46;64.37;101815.69;4918649;29;20067;-66
2021/12/21 11:50:06;;;;;;;30.95;11.98;;;;;;;4.41;63.78;101818.31;4918617;29;20067;-65
2021/12/21 11:53:07;;;;;;;28.25;12.85;;;;;;;4.27;64.43;101822.44;4918628;29;20051;-65
2021/12/21 11:55:38;;;;;;;32.55;12.15;;;;;;;4.15;64.79;101818.13;4906669;29;20052;-66
2021/12/21 11:58:24;;;;;;;35.80;13.50;;;;;;;3.98;65.54;101803.59;4918279;29;20484;-66
2021/12/21 12:00:57;;;;;;;26.38;12.38;;;;;;;4.25;65.55;101800.03;4917147;29;20056;-67
2021/12/21 12:03:27;;;;;;;33.25;13.13;;;;;;;4.28;64.91;101807.75;4930447;29;20058;-66
2021/12/21 12:06:04;;;;;;;32.70;12.95;;;;;;;4.29;64.47;101808.56;4952023;29;20044;-66
2021/12/21 12:08:43;;;;;;;32.88;12.18;;;;;;;4.22;64.51;101810.63;4937489;29;20051;-66
2021/12/21 12:11:25;;;;;;;28.10;12.23;;;;;;;4.20;64.50;101799.94;4937283;29;20062;-65
2021/12/21 12:14:07;;;;;;;26.58;12.15;;;;;;;4.26;64.20;101792.69;4936054;29;20299;-66
2021/12/21 12:16:50;;;;;;;30.20;12.45;;;;;;;4.06;64.96;101792.34;4937377;29;20066;-67
2021/12/21 12:19:20;;;;;;;32.50;13.82;;;;;;;4.15;65.04;101791.66;4936787;29;20051;-66
2021/12/21 12:21:55;;;;;;;28.33;12.88;;;;;;;4.27;64.32;101788.91;4951785;29;20415;-67
2021/12/21 12:24:25;;;;;;;23.83;11.80;;;;;;;4.29;64.23;101784.84;4937702;29;20403;-66
2021/12/21 12:26:57;;;;;;;;;;;;;;;4.28;63.98;101776.91;4940226;29;20055;-66
2021/12/21 12:29:25;;;;;;;33.22;12.82;;;;;;;4.14;64.37;101779.13;4940920;29;19926;-66
2021/12/21 12:32:03;;;;;;;27.20;13.20;;;;;;;4.28;64.27;101780.47;4940994;29;20047;-66
2021/12/21 12:34:34;;;;;;;28.35;13.73;;;;;;;4.28;63.98;101780.47;4941192;29;20053;-67
2021/12/21 12:37:23;;;;;;;34.33;15.00;;;;;;;4.51;63.71;101777.59;4940918;29;20051;-66
2021/12/21 12:39:52;;;;;;;29.60;13.15;;;;;;;4.56;63.16;101771.41;4940686;29;20058;-65
2021/12/21 12:42:25;;;;;;;27.07;13.57;;;;;;;4.71;63.14;101762.63;4955211;28;20054;-66
2021/12/21 12:45:15;;;;;;;31.60;13.20;;;;;;;4.64;62.55;101770.97;4940829;29;20791;-66
2021/12/21 12:47:45;;;;;;;32.22;14.60;;;;;;;4.43;63.43;101767.09;4939037;29;20055;-67